Time;durP1;ratioP1;P1;durP2;ratioP2;P2;SDS_P1;SDS_P2;PMS_P1;PMS_P2;Temp;Humidity;BMP_temperature;BMP_pressure;BME280_temperature;BME280_humidity;BME280_pressure;Samples;Min_cycle;Max_cycle;Signal;HPM_P1;HPM_P2
2020/12/15 00:00:43;;;;;;;1999.90;999.90;;;;;;;7.79;67.24;100900.00;15855578;28;20036;-58
2020/12/15 00:08:17;;;;;;;1999.90;999.90;;;;;;;7.63;67.79;100897.88;15836680;28;20039;-57
2020/12/15 00:15:49;;;;;;;1999.90;999.90;;;;;;;7.42;68.49;100891.91;15851741;28;20411;-57
2020/12/15 00:23:23;;;;;;;1999.90;999.90;;;;;;;7.27;68.63;100890.22;15838256;28;20047;-58
2020/12/15 00:30:55;;;;;;;1999.90;999.90;;;;;;;7.29;68.94;100887.13;15867990;28;20100;-56
2020/12/15 00:38:29;;;;;;;1999.90;999.90;;;;;;;7.28;68.99;100897.41;15851631;28;20517;-57
2020/12/15 00:46:01;;;;;;;;;;;;;;;7.38;68.68;100882.53;15868274;28;20104;-58
2020/12/15 00:53:35;;;;;;;1999.90;999.90;;;;;;;7.18;69.37;100864.31;15867611;28;19920;-57
2020/12/15 01:01:09;;;;;;;1999.90;999.90;;;;;;;7.28;68.95;100866.88;15833877;28;20131;-59
2020/12/15 01:08:43;;;;;;;1999.90;999.90;;;;;;;7.24;69.01;100854.75;15848907;28;20044;-56
2020/12/15 01:16:16;;;;;;;;;;;;;;;7.68;67.79;100847.75;15860770;28;20036;-55
2020/12/15 01:23:59;;;;;;;1999.90;999.90;;;;;;;7.35;69.03;100852.59;15861702;28;20307;-55
2020/12/15 01:31:35;;;;;;;1999.90;999.90;;;;;;;7.65;67.92;100846.44;15861681;28;20035;-56
2020/12/15 01:39:18;;;;;;;1999.90;999.90;;;;;;;7.28;68.65;100844.69;15863239;28;20064;-53
2020/12/15 01:47:05;;;;;;;1999.90;999.90;;;;;;;7.51;67.89;100838.13;15843310;28;20546;-56
2020/12/15 01:54:44;;;;;;;1999.90;999.90;;;;;;;7.68;67.40;100826.34;15860551;28;20096;-57
2020/12/15 02:02:19;;;;;;;1999.90;999.90;;;;;;;7.45;68.08;100825.47;15859579;28;20031;-57
2020/12/15 02:09:57;;;;;;;1999.90;999.90;;;;;;;7.45;68.49;100825.47;15859252;28;20492;-55
2020/12/15 02:17:47;;;;;;;1999.90;999.90;;;;;;;7.59;68.07;100830.16;15842333;28;20117;-58
2020/12/15 02:25:28;;;;;;;1999.90;999.90;;;;;;;7.67;67.51;100837.78;15857418;28;20040;-57
2020/12/15 02:33:01;;;;;;;1999.90;999.90;;;;;;;7.58;68.18;100846.00;15858125;28;20484;-57
2020/12/15 02:40:40;;;;;;;1999.90;999.90;;;;;;;7.39;68.24;100832.22;15840314;28;20051;-57
2020/12/15 02:48:17;;;;;;;1999.90;999.90;;;;;;;7.15;69.07;100831.63;15875571;28;20105;-56
2020/12/15 02:55:51;;;;;;;1999.90;999.90;;;;;;;7.19;68.98;100833.50;15839116;28;20479;-58
2020/12/15 03:03:31;;;;;;;1999.90;999.90;;;;;;;7.19;69.13;100836.28;15855858;28;20040;-57
2020/12/15 03:11:21;;;;;;;1999.90;999.90;;;;;;;7.00;69.78;100824.44;15855602;28;20516;-59
2020/12/15 03:18:55;;;;;;;1999.90;999.90;;;;;;;6.95;70.04;100821.72;15855049;28;20027;-57
2020/12/15 03:26:30;;;;;;;1999.90;999.90;;;;;;;6.98;69.95;100818.34;15837905;28;20047;-60
2020/12/15 03:34:06;;;;;;;1999.90;999.90;;;;;;;6.78;70.65;100830.66;15853867;28;20044;-56
2020/12/15 03:41:39;;;;;;;1999.90;999.90;;;;;;;6.48;71.70;100829.25;15885788;28;20039;-61
2020/12/15 03:49:18;;;;;;;1999.90;999.90;;;;;;;7.06;70.23;100844.56;15835233;28;20519;-55
2020/12/15 03:56:58;;;;;;;1999.90;999.90;;;;;;;7.01;69.45;100850.22;15853286;28;20054;-60
2020/12/15 04:04:31;;;;;;;1999.90;999.90;;;;;;;6.83;69.92;100849.97;15853164;28;20055;-57
2020/12/15 04:12:06;;;;;;;;;;;;;;;6.84;69.96;100856.34;15835640;28;20035;-53
2020/12/15 04:19:39;;;;;;;1999.90;999.90;;;;;;;6.53;70.57;100850.50;15851176;28;20367;-57
2020/12/15 04:27:14;;;;;;;1999.90;999.90;;;;;;;6.56;70.51;100853.47;15851093;28;20422;-54
2020/12/15 04:34:47;;;;;;;1999.90;999.90;;;;;;;6.37;71.55;100849.94;15867970;28;20146;-55
2020/12/15 04:42:22;;;;;;;1999.90;999.90;;;;;;;6.43;71.14;100847.88;15850194;28;20047;-61
2020/12/15 04:50:00;;;;;;;1999.90;999.90;;;;;;;5.79;72.66;100845.47;15850201;28;20118;-58
2020/12/15 04:57:38;;;;;;;1999.90;999.90;;;;;;;5.68;72.99;100834.84;15849300;28;20046;-54
2020/12/15 05:05:11;;;;;;;1999.90;999.90;;;;;;;5.60;73.38;100832.72;15830000;28;20540;-57
2020/12/15 05:12:46;;;;;;;;;;;;;;;5.93;71.96;100831.75;15834391;28;20059;-57
2020/12/15 05:20:26;;;;;;;1999.90;999.90;;;;;;;5.90;72.60;100840.66;15834296;28;20320;-57
2020/12/15 05:28:11;;;;;;;1999.90;999.90;;;;;;;5.90;72.24;100845.34;15848944;28;20466;-54
2020/12/15 05:35:45;;;;;;;1999.90;999.90;;;;;;;5.78;72.23;100846.59;15831250;28;20044;-55
2020/12/15 05:43:34;;;;;;;1999.90;999.90;;;;;;;5.75;72.56;100844.44;15849284;28;20048;-57
2020/12/15 05:51:09;;;;;;;1999.90;999.90;;;;;;;5.68;73.33;100843.16;15848272;28;20028;-59
2020/12/15 05:58:52;;;;;;;1999.90;999.90;;;;;;;5.64;74.12;100828.28;15869904;28;20039;-54
2020/12/15 06:06:26;;;;;;;1999.90;999.90;;;;;;;5.92;73.34;100832.88;15842353;28;20052;-57
2020/12/15 06:14:00;;;;;;;1999.90;999.90;;;;;;;6.02;72.82;100829.94;15877156;28;20101;-57
2020/12/15 06:21:36;;;;;;;1999.90;999.90;;;;;;;5.85;73.23;100832.41;15876256;28;20477;-57
2020/12/15 06:29:10;;;;;;;1999.90;999.90;;;;;;;6.19;72.35;100826.66;15858381;28;20131;-60
2020/12/15 06:36:43;;;;;;;1999.90;999.90;;;;;;;6.10;72.38;100814.59;15875473;28;20051;-57
2020/12/15 06:44:27;;;;;;;1999.90;999.90;;;;;;;5.75;73.98;100808.44;15875938;28;20067;-57
2020/12/15 06:52:03;;;;;;;1999.90;999.90;;;;;;;5.88;73.61;100808.81;15857101;28;20138;-61
2020/12/15 06:59:40;;;;;;;1999.90;999.90;;;;;;;6.21;71.76;100801.41;15874694;28;20047;-58
2020/12/15 07:07:14;;;;;;;1999.90;999.90;;;;;;;6.28;71.80;100785.22;15874111;28;20416;-57
2020/12/15 07:14:51;;;;;;;1999.90;999.90;;;;;;;6.25;71.61;100796.91;15856038;28;20043;-59
2020/12/15 07:22:24;;;;;;;1999.90;999.90;;;;;;;6.55;70.53;100813.00;15855067;28;20046;-61
2020/12/15 07:29:58;;;;;;;1999.90;999.90;;;;;;;6.45;71.15;100795.72;15873119;28;20177;-57
2020/12/15 07:37:31;;;;;;;1999.90;999.90;;;;;;;6.52;70.96;100802.53;15872690;28;20054;-54
2020/12/15 07:45:07;;;;;;;1999.90;999.90;;;;;;;6.43;71.11;100804.34;15872366;28;20276;-62
2020/12/15 07:52:40;;;;;;;1999.90;999.90;;;;;;;6.47;71.10;100815.69;15836071;28;20385;-57
2020/12/15 08:00:15;;;;;;;1999.90;999.90;;;;;;;6.52;70.71;100808.09;15871533;28;20142;-60
2020/12/15 08:07:53;;;;;;;1999.90;999.90;;;;;;;6.48;70.73;100807.06;15849140;27;20036;-61
2020/12/15 08:15:28;;;;;;;1999.90;999.90;;;;;;;6.84;69.37;100821.09;15865951;27;20047;-59
2020/12/15 08:23:06;;;;;;;1999.90;999.90;;;;;;;7.03;69.21;100820.22;15868207;28;20151;-62
2020/12/15 08:30:41;;;;;;;1999.90;999.90;;;;;;;6.84;69.62;100821.09;15887679;27;20036;-61
2020/12/15 08:38:13;;;;;;;1999.90;999.90;;;;;;;7.09;68.89;100832.88;15849706;28;20501;-62
2020/12/15 08:45:48;;;;;;;1999.90;999.90;;;;;;;6.99;68.93;100833.88;15866912;28;20052;-61
2020/12/15 08:53:21;;;;;;;1999.90;999.90;;;;;;;6.93;69.50;100824.00;15848950;28;20044;-61
2020/12/15 09:01:01;;;;;;;1999.90;999.90;;;;;;;7.36;67.70;100821.75;15848014;28;20048;-62
2020/12/15 09:08:46;;;;;;;1999.90;999.90;;;;;;;7.50;67.27;100830.91;15915941;27;20031;-63
2020/12/15 09:16:28;;;;;;;1999.90;999.90;;;;;;;7.88;66.10;100835.38;15911800;27;20511;-63
2020/12/15 09:24:01;;;;;;;1999.90;999.90;;;;;;;7.96;65.38;100813.22;15929666;27;20035;-62
2020/12/15 09:31:34;;;;;;;1999.90;999.90;;;;;;;8.06;65.13;100807.44;15920250;27;20058;-62
2020/12/15 09:39:07;;;;;;;1999.90;999.90;;;;;;;8.08;64.76;100790.44;15877707;28;20566;-61
2020/12/15 09:46:41;;;;;;;1999.90;999.90;;;;;;;7.95;65.16;100803.25;15858910;28;20056;-63
2020/12/15 09:54:13;;;;;;;1999.90;999.90;;;;;;;8.30;63.96;100809.91;15858812;28;20108;-63
2020/12/15 10:01:47;;;;;;;1999.90;999.90;;;;;;;8.45;63.21;100819.06;15876515;27;20050;-59
2020/12/15 10:09:19;;;;;;;1999.90;999.90;;;;;;;8.31;63.71;100808.78;15895023;27;20430;-59
2020/12/15 10:16:53;;;;;;;1999.90;999.90;;;;;;;8.32;63.40;100804.03;15939503;27;20054;-56
2020/12/15 10:24:40;;;;;;;1999.90;999.90;;;;;;;8.45;63.32;100783.72;15938993;27;20070;-61
2020/12/15 10:32:33;;;;;;;1999.90;999.90;;;;;;;8.44;63.18;100784.03;15918089;27;20396;-61
2020/12/15 10:40:06;;;;;;;1999.90;999.90;;;;;;;8.46;62.63;100779.00;15839694;28;20078;-63
2020/12/15 10:47:40;;;;;;;1999.90;999.90;;;;;;;8.60;62.05;100780.53;15838972;28;20134;-60
2020/12/15 10:55:13;;;;;;;;;;;;;;;9.09;61.01;100775.88;15875725;28;20040;-62
2020/12/15 11:02:47;;;;;;;1999.90;999.90;;;;;;;8.89;61.33;100776.44;15873343;27;20013;-56
2020/12/15 11:10:20;;;;;;;1999.90;999.90;;;;;;;9.09;60.96;100788.97;15937404;27;20499;-60
2020/12/15 11:17:53;;;;;;;1999.90;999.90;;;;;;;8.92;61.14;100786.94;15918606;27;20039;-59
2020/12/15 11:25:26;;;;;;;;;;;;;;;9.24;60.59;100783.78;15936178;27;20465;-58
2020/12/15 11:33:00;;;;;;;1999.90;999.90;;;;;;;9.26;60.23;100780.66;15877375;27;19927;-60
2020/12/15 11:40:32;;;;;;;1999.90;999.90;;;;;;;9.54;59.89;100781.25;15870726;28;20043;-61
2020/12/15 11:48:06;;;;;;;1999.90;999.90;;;;;;;9.76;59.04;100797.03;15867217;28;20039;-60
2020/12/15 11:55:48;;;;;;;1999.90;999.90;;;;;;;10.19;58.29;100787.84;15852298;28;20519;-61
2020/12/15 12:03:23;;;;;;;1999.90;999.90;;;;;;;10.34;57.43;100796.59;15869548;28;20043;-59
2020/12/15 12:10:59;;;;;;;1999.90;999.90;;;;;;;10.32;57.47;100810.06;15867896;27;20031;-62
2020/12/15 12:18:35;;;;;;;1999.90;999.90;;;;;;;10.52;57.59;100808.53;15882226;27;20038;-59
2020/12/15 12:26:08;;;;;;;1999.90;999.90;;;;;;;10.51;57.39;100795.72;15912608;27;20053;-59
2020/12/15 12:33:43;;;;;;;;;;;;;;;10.36;57.03;100788.69;15889682;27;20625;-57
2020/12/15 12:41:16;;;;;;;1999.90;999.90;;;;;;;10.53;57.85;100801.81;15841052;28;20448;-61
2020/12/15 12:48:50;;;;;;;1999.90;999.90;;;;;;;10.32;58.19;100806.44;15832016;28;20075;-56
2020/12/15 12:56:22;;;;;;;1999.90;999.90;;;;;;;9.89;59.55;100806.38;15866231;28;20527;-61
2020/12/15 13:03:56;;;;;;;1999.90;999.90;;;;;;;9.98;59.78;100799.66;15848096;28;20043;-58
2020/12/15 13:11:31;;;;;;;1999.90;999.90;;;;;;;10.02;59.70;100802.63;15784327;28;20069;-57
2020/12/15 13:19:05;;;;;;;1999.90;999.90;;;;;;;9.65;60.66;100790.94;15802654;28;20067;-59
2020/12/15 13:26:41;;;;;;;1999.90;999.90;;;;;;;9.67;61.03;100801.75;15785367;28;20048;-59
2020/12/15 13:34:14;;;;;;;1999.90;999.90;;;;;;;9.80;61.01;100798.84;15836842;28;20507;-59
2020/12/15 13:41:47;;;;;;;1999.90;999.90;;;;;;;9.78;61.02;100809.47;15865748;28;20044;-62
2020/12/15 13:49:20;;;;;;;1999.90;999.90;;;;;;;9.93;60.85;100824.94;15847580;28;20509;-62
2020/12/15 13:56:53;;;;;;;1999.90;999.90;;;;;;;9.95;60.75;100836.56;15847165;28;20058;-60
2020/12/15 14:04:26;;;;;;;1999.90;999.90;;;;;;;9.78;61.31;100805.88;15868530;28;20122;-62
2020/12/15 14:11:59;;;;;;;1999.90;999.90;;;;;;;9.69;61.49;100816.19;15873511;28;20064;-62
2020/12/15 14:19:33;;;;;;;1999.90;999.90;;;;;;;9.88;60.77;100818.66;15874571;28;20058;-60
2020/12/15 14:27:05;;;;;;;1999.90;999.90;;;;;;;9.77;61.20;100832.09;15859020;28;20485;-60
2020/12/15 14:34:39;;;;;;;1999.90;999.90;;;;;;;9.94;60.97;100848.03;15857307;28;20489;-59
2020/12/15 14:42:12;;;;;;;1999.90;999.90;;;;;;;9.77;61.23;100844.06;15874618;28;20031;-57
2020/12/15 14:49:46;;;;;;;1999.90;999.90;;;;;;;9.53;62.19;100843.69;15873441;28;20107;-60
2020/12/15 14:57:19;;;;;;;1999.90;999.90;;;;;;;9.46;62.31;100849.72;15873593;28;20043;-61
2020/12/15 15:04:53;;;;;;;1999.90;999.90;;;;;;;9.50;62.33;100864.66;15872388;28;20054;-60
2020/12/15 15:12:26;;;;;;;1999.90;999.90;;;;;;;9.59;61.91;100858.25;15872912;28;20043;-59
2020/12/15 15:19:59;;;;;;;1999.90;999.90;;;;;;;9.35;62.91;100858.69;15870734;27;20078;-58
2020/12/15 15:27:32;;;;;;;1999.90;999.90;;;;;;;9.24;63.21;100833.09;15891588;27;20047;-61
2020/12/15 15:35:08;;;;;;;1999.90;999.90;;;;;;;9.23;63.65;100837.00;15875680;27;20040;-60
2020/12/15 15:42:42;;;;;;;1999.90;999.90;;;;;;;9.34;63.10;100840.34;15872130;28;20075;-61
2020/12/15 15:50:15;;;;;;;1999.90;999.90;;;;;;;9.31;63.58;100839.03;15853664;28;20050;-61
2020/12/15 15:57:48;;;;;;;1999.90;999.90;;;;;;;9.36;63.42;100849.19;15852891;27;20059;-61
2020/12/15 16:05:21;;;;;;;1999.90;999.90;;;;;;;9.12;64.10;100855.97;15854057;28;20097;-60
2020/12/15 16:12:54;;;;;;;1999.90;999.90;;;;;;;9.09;64.12;100844.66;15852436;28;20046;-62
2020/12/15 16:20:32;;;;;;;1999.90;999.90;;;;;;;9.05;64.39;100838.88;15834974;28;20039;-59
2020/12/15 16:28:05;;;;;;;1999.90;999.90;;;;;;;8.88;64.67;100838.81;15851396;28;20143;-61
2020/12/15 16:35:39;;;;;;;1999.90;999.90;;;;;;;8.98;64.63;100843.28;15851280;28;20066;-59
2020/12/15 16:43:12;;;;;;;1999.90;999.90;;;;;;;8.73;65.51;100855.88;15869084;28;20047;-60
2020/12/15 16:50:45;;;;;;;1999.90;999.90;;;;;;;8.62;66.00;100864.50;15868639;28;20292;-59
2020/12/15 16:58:19;;;;;;;1999.90;999.90;;;;;;;8.59;66.17;100854.00;15849638;28;20044;-62
2020/12/15 17:05:53;;;;;;;1999.90;999.90;;;;;;;8.52;66.89;100869.47;15850063;28;20489;-59
2020/12/15 17:13:26;;;;;;;;;;;;;;;8.68;66.25;100868.81;15868180;28;20075;-61
2020/12/15 17:20:59;;;;;;;1999.90;999.90;;;;;;;8.57;66.12;100870.19;15848156;27;19927;-59
2020/12/15 17:28:32;;;;;;;1999.90;999.90;;;;;;;8.44;66.47;100882.19;15838599;28;20036;-61
2020/12/15 17:36:06;;;;;;;1999.90;999.90;;;;;;;8.52;66.38;100878.66;15847957;28;20501;-59
2020/12/15 17:43:38;;;;;;;1999.90;999.90;;;;;;;8.41;66.79;100888.38;15866147;28;20078;-61
2020/12/15 17:51:12;;;;;;;1999.90;999.90;;;;;;;8.38;67.10;100886.22;15847776;28;20201;-62
2020/12/15 17:58:44;;;;;;;1999.90;999.90;;;;;;;8.52;66.77;100902.84;15858716;28;20143;-59
2020/12/15 18:06:21;;;;;;;1999.90;999.90;;;;;;;8.61;66.62;100912.91;15859259;28;20039;-59
2020/12/15 18:13:53;;;;;;;1999.90;999.90;;;;;;;8.64;66.48;100909.50;15859336;28;20035;-62
2020/12/15 18:21:31;;;;;;;1999.90;999.90;;;;;;;8.90;65.99;100918.06;15875048;27;20052;-59
2020/12/15 18:29:04;;;;;;;1999.90;999.90;;;;;;;9.03;66.01;100919.13;15843894;28;20048;-63
2020/12/15 18:36:38;;;;;;;1999.90;999.90;;;;;;;9.24;65.25;100920.22;15873832;28;20057;-59
2020/12/15 18:44:10;;;;;;;1999.90;999.90;;;;;;;9.19;65.05;100927.91;15863082;27;20066;-59
2020/12/15 18:51:44;;;;;;;1999.90;999.90;;;;;;;9.16;65.31;100942.44;15854808;28;20434;-60
2020/12/15 18:59:16;;;;;;;1999.90;999.90;;;;;;;9.25;64.98;100930.22;15838120;28;20055;-61
2020/12/15 19:06:50;;;;;;;1999.90;999.90;;;;;;;9.41;64.70;100950.13;15871089;28;20043;-58
2020/12/15 19:14:22;;;;;;;1999.90;999.90;;;;;;;9.47;64.62;100948.84;15836303;28;20046;-61
2020/12/15 19:21:59;;;;;;;1999.90;999.90;;;;;;;9.54;65.02;100945.59;15871844;27;20039;-59
2020/12/15 19:29:31;;;;;;;1999.90;999.90;;;;;;;9.39;65.40;100951.59;15871259;28;20044;-58
2020/12/15 19:37:05;;;;;;;1999.90;999.90;;;;;;;9.50;65.27;100958.53;15865897;28;20394;-57
2020/12/15 19:44:37;;;;;;;1999.90;999.90;;;;;;;9.35;66.28;100967.28;15850337;28;20074;-60
2020/12/15 19:52:11;;;;;;;1999.90;999.90;;;;;;;9.43;66.57;100983.25;15872077;28;20465;-56
2020/12/15 19:59:44;;;;;;;1999.90;999.90;;;;;;;9.26;68.56;100995.09;15835380;28;20031;-59
2020/12/15 20:07:17;;;;;;;1999.90;999.90;;;;;;;9.01;71.14;100993.75;15868917;28;20100;-61
2020/12/15 20:14:50;;;;;;;1999.90;999.90;;;;;;;8.82;72.72;100996.72;15867628;28;20054;-60
2020/12/15 20:22:24;;;;;;;1999.90;999.90;;;;;;;8.77;74.31;100999.63;15850509;28;20131;-56
2020/12/15 20:29:57;;;;;;;1999.90;999.90;;;;;;;8.71;75.41;101003.66;15830552;28;20062;-58
2020/12/15 20:37:31;;;;;;;1999.90;999.90;;;;;;;8.77;75.78;101009.94;15865954;28;20039;-57
2020/12/15 20:45:04;;;;;;;1999.90;999.90;;;;;;;8.91;75.65;101025.44;15871998;27;20051;-57
2020/12/15 20:52:37;;;;;;;1999.90;999.90;;;;;;;9.01;75.67;101027.16;15865914;28;20122;-59
2020/12/15 21:00:10;;;;;;;1999.90;999.90;;;;;;;9.05;76.23;101027.34;15866633;28;20075;-60
2020/12/15 21:07:43;;;;;;;1999.90;999.90;;;;;;;9.13;76.19;101012.69;15829862;28;20047;-60
2020/12/15 21:15:16;;;;;;;1999.90;999.90;;;;;;;9.07;76.63;101012.00;15850349;28;20513;-56
2020/12/15 21:22:50;;;;;;;1999.90;999.90;;;;;;;9.15;77.00;101046.59;15864373;28;20500;-59
2020/12/15 21:30:23;;;;;;;1999.90;999.90;;;;;;;9.22;77.04;101056.16;15846725;28;20043;-60
2020/12/15 21:37:56;;;;;;;1999.90;999.90;;;;;;;9.30;77.30;101062.13;15857856;28;20043;-59
2020/12/15 21:45:31;;;;;;;1999.90;999.90;;;;;;;9.17;78.29;101061.03;15872147;27;20047;-58
2020/12/15 21:53:04;;;;;;;1999.90;999.90;;;;;;;9.40;78.00;101068.25;15861567;28;20089;-59
2020/12/15 22:00:37;;;;;;;1999.90;999.90;;;;;;;9.29;78.22;101085.53;15859937;28;20071;-56
2020/12/15 22:08:11;;;;;;;1999.90;999.90;;;;;;;9.45;77.58;101087.63;15874337;28;20490;-61
2020/12/15 22:15:44;;;;;;;1999.90;999.90;;;;;;;9.52;77.50;101099.16;15859583;28;20040;-58
2020/12/15 22:23:18;;;;;;;1999.90;999.90;;;;;;;9.64;76.93;101095.78;15858814;28;20411;-57
2020/12/15 22:30:50;;;;;;;1999.90;999.90;;;;;;;9.68;76.43;101110.72;15854671;28;20489;-60
2020/12/15 22:38:24;;;;;;;1999.90;999.90;;;;;;;9.75;76.44;101113.91;15837223;28;20133;-58
2020/12/15 22:45:57;;;;;;;;;;;;;;;9.79;76.26;101116.84;15813456;28;20048;-55
2020/12/15 22:53:30;;;;;;;1999.90;999.90;;;;;;;9.66;76.93;101120.53;15794608;28;19920;-57
2020/12/15 23:01:03;;;;;;;1999.90;999.90;;;;;;;9.72;76.47;101127.66;15829121;28;20132;-55
2020/12/15 23:08:36;;;;;;;1999.90;999.90;;;;;;;9.73;76.50;101121.75;15831559;28;20051;-60
2020/12/15 23:16:09;;;;;;;1999.90;999.90;;;;;;;9.68;76.70;101126.63;15817668;28;20039;-58
2020/12/15 23:23:43;;;;;;;1999.90;999.90;;;;;;;9.62;76.29;101125.13;15853028;28;20580;-58
2020/12/15 23:31:15;;;;;;;;;;;;;;;9.73;76.02;101121.75;15829698;28;20128;-60
2020/12/15 23:38:48;;;;;;;1999.90;999.90;;;;;;;9.57;77.30;101133.59;15837439;28;19927;-58
2020/12/15 23:46:21;;;;;;;1999.90;999.90;;;;;;;9.65;76.34;101141.19;15811335;28;20458;-58
2020/12/15 23:53:55;;;;;;;1999.90;999.90;;;;;;;9.71;76.37;101149.13;15869798;28;20048;-57
